sensor_id;sensor_type;location;lat;lon;timestamp;P1;P2;P0
70922;PMS5003;58573;28.942;-13.688;2022-10-10T00:00:12;9;9;
70922;PMS5003;58573;28.942;-13.688;2022-10-10T00:02:37;9;8;
70922;PMS5003;58573;28.942;-13.688;2022-10-10T00:05:03;11;8;
70922;PMS5003;58573;28.942;-13.688;2022-10-10T00:07:28;13;10;
70922;PMS5003;58573;28.942;-13.688;2022-10-10T00:09:53;10;10;
70922;PMS5003;58573;28.942;-13.688;2022-10-10T00:12:19;9;9;
70922;PMS5003;58573;28.942;-13.688;2022-10-10T00:14:44;18;16;
70922;PMS5003;58573;28.942;-13.688;2022-10-10T00:17:10;13;10;
70922;PMS5003;58573;28.942;-13.688;2022-10-10T00:19:35;13;10;
70922;PMS5003;58573;28.942;-13.688;2022-10-10T00:22:00;12;9;
70922;PMS5003;58573;28.942;-13.688;2022-10-10T00:24:26;17;12;
70922;PMS5003;58573;28.942;-13.688;2022-10-10T00:26:52;13;12;
70922;PMS5003;58573;28.942;-13.688;2022-10-10T00:29:17;12;10;
70922;PMS5003;58573;28.942;-13.688;2022-10-10T00:31:43;16;10;
70922;PMS5003;58573;28.942;-13.688;2022-10-10T00:34:08;10;8;
70922;PMS5003;58573;28.942;-13.688;2022-10-10T00:36:33;17;14;
70922;PMS5003;58573;28.942;-13.688;2022-10-10T00:38:59;14;13;
70922;PMS5003;58573;28.942;-13.688;2022-10-10T00:41:25;11;11;
70922;PMS5003;58573;28.942;-13.688;2022-10-10T00:43:59;17;15;
70922;PMS5003;58573;28.942;-13.688;2022-10-10T00:46:16;15;11;
70922;PMS5003;58573;28.942;-13.688;2022-10-10T00:48:42;11;9;
70922;PMS5003;58573;28.942;-13.688;2022-10-10T00:51:08;9;9;
70922;PMS5003;58573;28.942;-13.688;2022-10-10T00:53:33;14;12;
70922;PMS5003;58573;28.942;-13.688;2022-10-10T00:55:58;14;11;
70922;PMS5003;58573;28.942;-13.688;2022-10-10T00:58:23;10;9;
70922;PMS5003;58573;28.942;-13.688;2022-10-10T01:00:49;11;9;
70922;PMS5003;58573;28.942;-13.688;2022-10-10T01:03:14;9;8;
70922;PMS5003;58573;28.942;-13.688;2022-10-10T01:05:40;11;9;
70922;PMS5003;58573;28.942;-13.688;2022-10-10T01:08:05;14;12;
70922;PMS5003;58573;28.942;-13.688;2022-10-10T01:10:30;14;11;
70922;PMS5003;58573;28.942;-13.688;2022-10-10T01:12:59;13;11;
70922;PMS5003;58573;28.942;-13.688;2022-10-10T01:15:22;14;12;
70922;PMS5003;58573;28.942;-13.688;2022-10-10T01:17:48;15;12;
70922;PMS5003;58573;28.942;-13.688;2022-10-10T01:22:37;17;11;
70922;PMS5003;58573;28.942;-13.688;2022-10-10T01:25:05;18;16;
70922;PMS5003;58573;28.942;-13.688;2022-10-10T01:27:28;13;12;
70922;PMS5003;58573;28.942;-13.688;2022-10-10T01:29:53;18;12;
70922;PMS5003;58573;28.942;-13.688;2022-10-10T01:32:20;14;10;
70922;PMS5003;58573;28.942;-13.688;2022-10-10T01:34:46;12;10;
70922;PMS5003;58573;28.942;-13.688;2022-10-10T01:37:12;10;8;
70922;PMS5003;58573;28.942;-13.688;2022-10-10T01:39:37;10;9;
70922;PMS5003;58573;28.942;-13.688;2022-10-10T01:42:01;14;11;
70922;PMS5003;58573;28.942;-13.688;2022-10-10T01:44:25;15;11;
70922;PMS5003;58573;28.942;-13.688;2022-10-10T01:46:50;15;14;
70922;PMS5003;58573;28.942;-13.688;2022-10-10T01:49:15;13;13;
70922;PMS5003;58573;28.942;-13.688;2022-10-10T01:51:46;13;11;
70922;PMS5003;58573;28.942;-13.688;2022-10-10T01:54:10;14;12;
70922;PMS5003;58573;28.942;-13.688;2022-10-10T01:56:32;17;14;
70922;PMS5003;58573;28.942;-13.688;2022-10-10T01:59:01;15;12;
70922;PMS5003;58573;28.942;-13.688;2022-10-10T02:01:23;14;12;
70922;PMS5003;58573;28.942;-13.688;2022-10-10T02:03:49;12;10;
70922;PMS5003;58573;28.942;-13.688;2022-10-10T02:06:13;10;9;
70922;PMS5003;58573;28.942;-13.688;2022-10-10T02:08:39;12;12;
70922;PMS5003;58573;28.942;-13.688;2022-10-10T02:11:05;12;10;
70922;PMS5003;58573;28.942;-13.688;2022-10-10T02:13:29;13;11;
70922;PMS5003;58573;28.942;-13.688;2022-10-10T02:15:54;14;12;
70922;PMS5003;58573;28.942;-13.688;2022-10-10T02:18:21;16;12;
70922;PMS5003;58573;28.942;-13.688;2022-10-10T02:20:44;10;10;
70922;PMS5003;58573;28.942;-13.688;2022-10-10T02:23:10;11;10;
70922;PMS5003;58573;28.942;-13.688;2022-10-10T02:25:36;15;11;
70922;PMS5003;58573;28.942;-13.688;2022-10-10T02:28:04;14;12;
70922;PMS5003;58573;28.942;-13.688;2022-10-10T02:30:26;15;13;
70922;PMS5003;58573;28.942;-13.688;2022-10-10T02:32:54;11;9;
70922;PMS5003;58573;28.942;-13.688;2022-10-10T02:35:18;14;9;
70922;PMS5003;58573;28.942;-13.688;2022-10-10T02:37:43;16;12;
70922;PMS5003;58573;28.942;-13.688;2022-10-10T02:40:09;12;10;
70922;PMS5003;58573;28.942;-13.688;2022-10-10T02:42:33;15;11;
70922;PMS5003;58573;28.942;-13.688;2022-10-10T02:44:59;12;7;
70922;PMS5003;58573;28.942;-13.688;2022-10-10T02:47:24;9;8;
70922;PMS5003;58573;28.942;-13.688;2022-10-10T02:49:50;10;8;
70922;PMS5003;58573;28.942;-13.688;2022-10-10T02:52:16;11;10;
70922;PMS5003;58573;28.942;-13.688;2022-10-10T02:54:41;8;7;
70922;PMS5003;58573;28.942;-13.688;2022-10-10T02:57:06;7;6;
70922;PMS5003;58573;28.942;-13.688;2022-10-10T02:59:32;10;9;
70922;PMS5003;58573;28.942;-13.688;2022-10-10T03:01:57;13;10;
70922;PMS5003;58573;28.942;-13.688;2022-10-10T03:04:22;9;8;
70922;PMS5003;58573;28.942;-13.688;2022-10-10T03:06:47;16;12;
70922;PMS5003;58573;28.942;-13.688;2022-10-10T03:09:13;10;9;
70922;PMS5003;58573;28.942;-13.688;2022-10-10T03:11:38;10;7;
70922;PMS5003;58573;28.942;-13.688;2022-10-10T03:14:03;12;9;
70922;PMS5003;58573;28.942;-13.688;2022-10-10T03:16:29;10;8;
70922;PMS5003;58573;28.942;-13.688;2022-10-10T03:18:55;14;12;
70922;PMS5003;58573;28.942;-13.688;2022-10-10T03:21:20;11;10;
70922;PMS5003;58573;28.942;-13.688;2022-10-10T03:23:45;10;9;
70922;PMS5003;58573;28.942;-13.688;2022-10-10T03:26:10;7;7;
70922;PMS5003;58573;28.942;-13.688;2022-10-10T03:28:36;9;6;
70922;PMS5003;58573;28.942;-13.688;2022-10-10T03:31:01;9;7;
70922;PMS5003;58573;28.942;-13.688;2022-10-10T03:33:26;14;9;
70922;PMS5003;58573;28.942;-13.688;2022-10-10T03:35:52;8;6;
70922;PMS5003;58573;28.942;-13.688;2022-10-10T03:38:17;9;7;
70922;PMS5003;58573;28.942;-13.688;2022-10-10T03:40:42;9;8;
70922;PMS5003;58573;28.942;-13.688;2022-10-10T03:43:08;6;5;
70922;PMS5003;58573;28.942;-13.688;2022-10-10T03:45:33;12;8;
70922;PMS5003;58573;28.942;-13.688;2022-10-10T03:47:58;6;6;
70922;PMS5003;58573;28.942;-13.688;2022-10-10T03:50:23;12;11;
70922;PMS5003;58573;28.942;-13.688;2022-10-10T03:52:49;8;7;
70922;PMS5003;58573;28.942;-13.688;2022-10-10T03:55:14;9;6;
70922;PMS5003;58573;28.942;-13.688;2022-10-10T03:57:39;6;5;
70922;PMS5003;58573;28.942;-13.688;2022-10-10T04:00:05;6;6;
70922;PMS5003;58573;28.942;-13.688;2022-10-10T04:02:30;12;8;
70922;PMS5003;58573;28.942;-13.688;2022-10-10T04:04:55;9;7;
70922;PMS5003;58573;28.942;-13.688;2022-10-10T04:07:21;6;6;
70922;PMS5003;58573;28.942;-13.688;2022-10-10T04:09:47;4;4;
70922;PMS5003;58573;28.942;-13.688;2022-10-10T04:12:12;6;5;
70922;PMS5003;58573;28.942;-13.688;2022-10-10T04:14:37;12;10;
70922;PMS5003;58573;28.942;-13.688;2022-10-10T04:17:03;5;4;
70922;PMS5003;58573;28.942;-13.688;2022-10-10T04:19:28;4;4;
70922;PMS5003;58573;28.942;-13.688;2022-10-10T04:21:53;7;6;
70922;PMS5003;58573;28.942;-13.688;2022-10-10T04:24:18;6;4;
70922;PMS5003;58573;28.942;-13.688;2022-10-10T04:26:44;3;3;
70922;PMS5003;58573;28.942;-13.688;2022-10-10T04:29:09;5;5;
70922;PMS5003;58573;28.942;-13.688;2022-10-10T04:31:35;6;5;
70922;PMS5003;58573;28.942;-13.688;2022-10-10T04:34:00;11;9;
70922;PMS5003;58573;28.942;-13.688;2022-10-10T04:36:25;5;5;
70922;PMS5003;58573;28.942;-13.688;2022-10-10T04:38:50;10;8;
70922;PMS5003;58573;28.942;-13.688;2022-10-10T04:41:16;6;4;
70922;PMS5003;58573;28.942;-13.688;2022-10-10T04:43:41;6;5;
70922;PMS5003;58573;28.942;-13.688;2022-10-10T04:46:07;8;5;
70922;PMS5003;58573;28.942;-13.688;2022-10-10T04:48:32;6;5;
70922;PMS5003;58573;28.942;-13.688;2022-10-10T04:50:58;4;4;
70922;PMS5003;58573;28.942;-13.688;2022-10-10T04:53:23;14;9;
70922;PMS5003;58573;28.942;-13.688;2022-10-10T04:55:48;7;4;
70922;PMS5003;58573;28.942;-13.688;2022-10-10T04:58:14;7;6;
70922;PMS5003;58573;28.942;-13.688;2022-10-10T05:00:39;7;3;
70922;PMS5003;58573;28.942;-13.688;2022-10-10T05:03:04;7;5;
70922;PMS5003;58573;28.942;-13.688;2022-10-10T05:05:30;5;4;
70922;PMS5003;58573;28.942;-13.688;2022-10-10T05:07:55;7;6;
70922;PMS5003;58573;28.942;-13.688;2022-10-10T05:10:21;5;3;
70922;PMS5003;58573;28.942;-13.688;2022-10-10T05:12:47;10;8;
70922;PMS5003;58573;28.942;-13.688;2022-10-10T05:15:12;3;3;
70922;PMS5003;58573;28.942;-13.688;2022-10-10T05:17:37;7;7;
70922;PMS5003;58573;28.942;-13.688;2022-10-10T05:20:03;4;3;
70922;PMS5003;58573;28.942;-13.688;2022-10-10T05:22:28;4;2;
70922;PMS5003;58573;28.942;-13.688;2022-10-10T05:24:53;4;4;
70922;PMS5003;58573;28.942;-13.688;2022-10-10T05:27:19;3;3;
70922;PMS5003;58573;28.942;-13.688;2022-10-10T05:29:44;3;3;
70922;PMS5003;58573;28.942;-13.688;2022-10-10T05:32:09;6;4;
70922;PMS5003;58573;28.942;-13.688;2022-10-10T05:34:34;4;2;
70922;PMS5003;58573;28.942;-13.688;2022-10-10T05:37:00;3;3;
70922;PMS5003;58573;28.942;-13.688;2022-10-10T05:39:25;5;4;
70922;PMS5003;58573;28.942;-13.688;2022-10-10T05:41:51;2;1;
70922;PMS5003;58573;28.942;-13.688;2022-10-10T05:44:16;3;1;
70922;PMS5003;58573;28.942;-13.688;2022-10-10T05:46:41;7;6;
70922;PMS5003;58573;28.942;-13.688;2022-10-10T05:49:06;3;3;
70922;PMS5003;58573;28.942;-13.688;2022-10-10T05:51:32;3;3;
70922;PMS5003;58573;28.942;-13.688;2022-10-10T05:53:57;3;2;
70922;PMS5003;58573;28.942;-13.688;2022-10-10T05:56:22;5;4;
70922;PMS5003;58573;28.942;-13.688;2022-10-10T05:58:48;3;3;
70922;PMS5003;58573;28.942;-13.688;2022-10-10T06:01:13;3;1;
70922;PMS5003;58573;28.942;-13.688;2022-10-10T06:03:38;4;3;
70922;PMS5003;58573;28.942;-13.688;2022-10-10T06:06:04;2;2;
70922;PMS5003;58573;28.942;-13.688;2022-10-10T06:08:29;4;3;
70922;PMS5003;58573;28.942;-13.688;2022-10-10T06:10:59;4;4;
70922;PMS5003;58573;28.942;-13.688;2022-10-10T06:13:20;2;2;
70922;PMS5003;58573;28.942;-13.688;2022-10-10T06:15:45;7;5;
70922;PMS5003;58573;28.942;-13.688;2022-10-10T06:18:10;3;2;
70922;PMS5003;58573;28.942;-13.688;2022-10-10T06:20:36;5;5;
70922;PMS5003;58573;28.942;-13.688;2022-10-10T06:23:02;2;2;
70922;PMS5003;58573;28.942;-13.688;2022-10-10T06:25:26;5;4;
70922;PMS5003;58573;28.942;-13.688;2022-10-10T06:27:52;2;2;
70922;PMS5003;58573;28.942;-13.688;2022-10-10T06:30:17;7;5;
70922;PMS5003;58573;28.942;-13.688;2022-10-10T06:32:42;4;4;
70922;PMS5003;58573;28.942;-13.688;2022-10-10T06:35:08;5;3;
70922;PMS5003;58573;28.942;-13.688;2022-10-10T06:37:33;3;2;
70922;PMS5003;58573;28.942;-13.688;2022-10-10T06:39:58;5;3;
70922;PMS5003;58573;28.942;-13.688;2022-10-10T06:42:24;3;3;
70922;PMS5003;58573;28.942;-13.688;2022-10-10T06:44:49;6;4;
70922;PMS5003;58573;28.942;-13.688;2022-10-10T06:47:15;5;3;
70922;PMS5003;58573;28.942;-13.688;2022-10-10T06:49:40;4;2;
70922;PMS5003;58573;28.942;-13.688;2022-10-10T06:52:05;6;5;
70922;PMS5003;58573;28.942;-13.688;2022-10-10T06:54:30;4;3;
70922;PMS5003;58573;28.942;-13.688;2022-10-10T06:56:56;2;2;
70922;PMS5003;58573;28.942;-13.688;2022-10-10T06:59:21;4;3;
70922;PMS5003;58573;28.942;-13.688;2022-10-10T07:01:46;3;3;
70922;PMS5003;58573;28.942;-13.688;2022-10-10T07:04:12;5;3;
70922;PMS5003;58573;28.942;-13.688;2022-10-10T07:06:37;5;4;
70922;PMS5003;58573;28.942;-13.688;2022-10-10T07:09:02;3;3;
70922;PMS5003;58573;28.942;-13.688;2022-10-10T07:11:27;9;8;
70922;PMS5003;58573;28.942;-13.688;2022-10-10T07:13:53;4;4;
70922;PMS5003;58573;28.942;-13.688;2022-10-10T07:16:18;5;4;
70922;PMS5003;58573;28.942;-13.688;2022-10-10T07:18:43;5;3;
70922;PMS5003;58573;28.942;-13.688;2022-10-10T07:21:09;3;3;
70922;PMS5003;58573;28.942;-13.688;2022-10-10T07:23:34;7;4;
70922;PMS5003;58573;28.942;-13.688;2022-10-10T07:26:00;3;3;
70922;PMS5003;58573;28.942;-13.688;2022-10-10T07:28:25;6;5;
70922;PMS5003;58573;28.942;-13.688;2022-10-10T07:30:50;3;3;
70922;PMS5003;58573;28.942;-13.688;2022-10-10T07:33:15;6;5;
70922;PMS5003;58573;28.942;-13.688;2022-10-10T07:35:41;5;3;
70922;PMS5003;58573;28.942;-13.688;2022-10-10T07:38:06;10;8;
70922;PMS5003;58573;28.942;-13.688;2022-10-10T07:40:31;4;3;
70922;PMS5003;58573;28.942;-13.688;2022-10-10T07:42:56;3;2;
70922;PMS5003;58573;28.942;-13.688;2022-10-10T07:45:22;5;4;
70922;PMS5003;58573;28.942;-13.688;2022-10-10T07:47:47;4;3;
70922;PMS5003;58573;28.942;-13.688;2022-10-10T07:50:12;3;3;
70922;PMS5003;58573;28.942;-13.688;2022-10-10T07:52:38;2;2;
70922;PMS5003;58573;28.942;-13.688;2022-10-10T07:55:03;2;1;
70922;PMS5003;58573;28.942;-13.688;2022-10-10T07:57:28;4;4;
70922;PMS5003;58573;28.942;-13.688;2022-10-10T07:59:53;4;3;
70922;PMS5003;58573;28.942;-13.688;2022-10-10T08:02:19;5;4;
70922;PMS5003;58573;28.942;-13.688;2022-10-10T08:04:44;4;2;
70922;PMS5003;58573;28.942;-13.688;2022-10-10T08:07:09;4;3;
70922;PMS5003;58573;28.942;-13.688;2022-10-10T08:09:35;2;2;
70922;PMS5003;58573;28.942;-13.688;2022-10-10T08:12:00;1;1;
70922;PMS5003;58573;28.942;-13.688;2022-10-10T08:14:25;6;3;
70922;PMS5003;58573;28.942;-13.688;2022-10-10T08:16:50;6;4;
70922;PMS5003;58573;28.942;-13.688;2022-10-10T08:19:16;2;1;
70922;PMS5003;58573;28.942;-13.688;2022-10-10T08:21:41;4;3;
70922;PMS5003;58573;28.942;-13.688;2022-10-10T08:24:07;4;2;
70922;PMS5003;58573;28.942;-13.688;2022-10-10T08:26:32;5;4;
70922;PMS5003;58573;28.942;-13.688;2022-10-10T08:28:57;3;3;
70922;PMS5003;58573;28.942;-13.688;2022-10-10T08:31:23;4;4;
70922;PMS5003;58573;28.942;-13.688;2022-10-10T08:33:49;4;3;
70922;PMS5003;58573;28.942;-13.688;2022-10-10T08:36:14;3;3;
70922;PMS5003;58573;28.942;-13.688;2022-10-10T08:38:39;7;4;
70922;PMS5003;58573;28.942;-13.688;2022-10-10T08:41:06;5;5;
70922;PMS5003;58573;28.942;-13.688;2022-10-10T08:43:31;3;3;
70922;PMS5003;58573;28.942;-13.688;2022-10-10T08:45:55;5;5;
70922;PMS5003;58573;28.942;-13.688;2022-10-10T08:48:20;1;1;
70922;PMS5003;58573;28.942;-13.688;2022-10-10T08:50:46;2;2;
70922;PMS5003;58573;28.942;-13.688;2022-10-10T08:53:12;7;5;
70922;PMS5003;58573;28.942;-13.688;2022-10-10T08:55:37;3;1;
70922;PMS5003;58573;28.942;-13.688;2022-10-10T08:58:03;2;2;
70922;PMS5003;58573;28.942;-13.688;2022-10-10T09:00:27;4;4;
70922;PMS5003;58573;28.942;-13.688;2022-10-10T09:02:52;2;2;
70922;PMS5003;58573;28.942;-13.688;2022-10-10T09:05:18;3;3;
70922;PMS5003;58573;28.942;-13.688;2022-10-10T09:07:48;2;2;
70922;PMS5003;58573;28.942;-13.688;2022-10-10T09:10:11;3;2;
70922;PMS5003;58573;28.942;-13.688;2022-10-10T09:12:36;4;2;
70922;PMS5003;58573;28.942;-13.688;2022-10-10T09:14:59;4;3;
70922;PMS5003;58573;28.942;-13.688;2022-10-10T09:17:27;3;3;
70922;PMS5003;58573;28.942;-13.688;2022-10-10T09:19:52;3;3;
70922;PMS5003;58573;28.942;-13.688;2022-10-10T09:22:16;5;5;
70922;PMS5003;58573;28.942;-13.688;2022-10-10T09:24:41;4;2;
70922;PMS5003;58573;28.942;-13.688;2022-10-10T09:27:06;4;2;
70922;PMS5003;58573;28.942;-13.688;2022-10-10T09:29:31;2;1;
70922;PMS5003;58573;28.942;-13.688;2022-10-10T09:31:56;3;3;
70922;PMS5003;58573;28.942;-13.688;2022-10-10T09:34:23;3;2;
70922;PMS5003;58573;28.942;-13.688;2022-10-10T09:36:47;2;2;
70922;PMS5003;58573;28.942;-13.688;2022-10-10T09:39:15;2;2;
70922;PMS5003;58573;28.942;-13.688;2022-10-10T09:41:39;2;2;
70922;PMS5003;58573;28.942;-13.688;2022-10-10T09:44:03;3;2;
70922;PMS5003;58573;28.942;-13.688;2022-10-10T09:46:28;4;3;
70922;PMS5003;58573;28.942;-13.688;2022-10-10T09:48:54;2;2;
70922;PMS5003;58573;28.942;-13.688;2022-10-10T09:51:19;2;2;
70922;PMS5003;58573;28.942;-13.688;2022-10-10T09:53:45;2;2;
70922;PMS5003;58573;28.942;-13.688;2022-10-10T09:56:13;2;1;
70922;PMS5003;58573;28.942;-13.688;2022-10-10T09:58:36;4;2;
70922;PMS5003;58573;28.942;-13.688;2022-10-10T10:03:26;2;2;
70922;PMS5003;58573;28.942;-13.688;2022-10-10T10:05:53;2;1;
70922;PMS5003;58573;28.942;-13.688;2022-10-10T10:08:18;3;3;
70922;PMS5003;58573;28.942;-13.688;2022-10-10T10:10:42;3;3;
70922;PMS5003;58573;28.942;-13.688;2022-10-10T10:13:11;4;3;
70922;PMS5003;58573;28.942;-13.688;2022-10-10T10:15:33;3;2;
70922;PMS5003;58573;28.942;-13.688;2022-10-10T10:20:32;4;4;
70922;PMS5003;58573;28.942;-13.688;2022-10-10T10:22:49;3;3;
70922;PMS5003;58573;28.942;-13.688;2022-10-10T10:27:39;5;4;
70922;PMS5003;58573;28.942;-13.688;2022-10-10T10:30:05;2;1;
70922;PMS5003;58573;28.942;-13.688;2022-10-10T10:32:34;2;2;
70922;PMS5003;58573;28.942;-13.688;2022-10-10T10:34:59;6;4;
70922;PMS5003;58573;28.942;-13.688;2022-10-10T10:37:20;2;2;
70922;PMS5003;58573;28.942;-13.688;2022-10-10T10:39:49;5;1;
70922;PMS5003;58573;28.942;-13.688;2022-10-10T10:42:15;3;2;
70922;PMS5003;58573;28.942;-13.688;2022-10-10T10:44:38;1;0;
70922;PMS5003;58573;28.942;-13.688;2022-10-10T10:47:05;3;3;
70922;PMS5003;58573;28.942;-13.688;2022-10-10T10:49:28;2;2;
70922;PMS5003;58573;28.942;-13.688;2022-10-10T10:51:58;2;2;
70922;PMS5003;58573;28.942;-13.688;2022-10-10T10:54:21;3;2;
70922;PMS5003;58573;28.942;-13.688;2022-10-10T10:56:45;4;3;
70922;PMS5003;58573;28.942;-13.688;2022-10-10T10:59:11;3;2;
70922;PMS5003;58573;28.942;-13.688;2022-10-10T11:01:34;2;2;
70922;PMS5003;58573;28.942;-13.688;2022-10-10T11:03:59;4;2;
70922;PMS5003;58573;28.942;-13.688;2022-10-10T11:06:29;3;2;
70922;PMS5003;58573;28.942;-13.688;2022-10-10T11:08:53;2;2;
70922;PMS5003;58573;28.942;-13.688;2022-10-10T11:11:19;2;2;
70922;PMS5003;58573;28.942;-13.688;2022-10-10T11:13:41;2;2;
70922;PMS5003;58573;28.942;-13.688;2022-10-10T11:16:08;4;1;
70922;PMS5003;58573;28.942;-13.688;2022-10-10T11:18:31;3;2;
70922;PMS5003;58573;28.942;-13.688;2022-10-10T11:20:57;2;2;
70922;PMS5003;58573;28.942;-13.688;2022-10-10T11:23:21;2;1;
70922;PMS5003;58573;28.942;-13.688;2022-10-10T11:25:49;3;2;
70922;PMS5003;58573;28.942;-13.688;2022-10-10T11:28:12;5;3;
70922;PMS5003;58573;28.942;-13.688;2022-10-10T11:30:39;3;2;
70922;PMS5003;58573;28.942;-13.688;2022-10-10T11:33:04;3;2;
70922;PMS5003;58573;28.942;-13.688;2022-10-10T11:35:30;4;2;
70922;PMS5003;58573;28.942;-13.688;2022-10-10T11:37:54;2;2;
70922;PMS5003;58573;28.942;-13.688;2022-10-10T11:40:24;2;1;
70922;PMS5003;58573;28.942;-13.688;2022-10-10T11:42:44;3;3;
70922;PMS5003;58573;28.942;-13.688;2022-10-10T11:45:12;2;1;
70922;PMS5003;58573;28.942;-13.688;2022-10-10T11:47:34;2;2;
70922;PMS5003;58573;28.942;-13.688;2022-10-10T11:49:59;2;1;
70922;PMS5003;58573;28.942;-13.688;2022-10-10T11:52:27;4;2;
70922;PMS5003;58573;28.942;-13.688;2022-10-10T11:54:51;1;0;
70922;PMS5003;58573;28.942;-13.688;2022-10-10T11:57:16;6;5;
70922;PMS5003;58573;28.942;-13.688;2022-10-10T11:59:41;3;2;
70922;PMS5003;58573;28.942;-13.688;2022-10-10T12:02:10;3;2;
70922;PMS5003;58573;28.942;-13.688;2022-10-10T12:04:33;3;1;
70922;PMS5003;58573;28.942;-13.688;2022-10-10T12:06:57;3;2;
70922;PMS5003;58573;28.942;-13.688;2022-10-10T12:09:22;1;1;
70922;PMS5003;58573;28.942;-13.688;2022-10-10T12:11:47;2;1;
70922;PMS5003;58573;28.942;-13.688;2022-10-10T12:14:12;1;1;
70922;PMS5003;58573;28.942;-13.688;2022-10-10T12:16:37;4;3;
70922;PMS5003;58573;28.942;-13.688;2022-10-10T12:19:03;4;3;
70922;PMS5003;58573;28.942;-13.688;2022-10-10T12:21:28;2;0;
70922;PMS5003;58573;28.942;-13.688;2022-10-10T12:26:18;1;1;
70922;PMS5003;58573;28.942;-13.688;2022-10-10T12:31:17;3;1;
70922;PMS5003;58573;28.942;-13.688;2022-10-10T12:38:24;2;1;
70922;PMS5003;58573;28.942;-13.688;2022-10-10T12:43:20;2;2;
70922;PMS5003;58573;28.942;-13.688;2022-10-10T12:48:11;2;2;
70922;PMS5003;58573;28.942;-13.688;2022-10-10T12:50:31;3;3;
70922;PMS5003;58573;28.942;-13.688;2022-10-10T12:52:56;3;2;
70922;PMS5003;58573;28.942;-13.688;2022-10-10T12:55:21;2;1;
70922;PMS5003;58573;28.942;-13.688;2022-10-10T12:57:46;3;2;
70922;PMS5003;58573;28.942;-13.688;2022-10-10T13:00:13;3;3;
70922;PMS5003;58573;28.942;-13.688;2022-10-10T13:02:36;2;2;
70922;PMS5003;58573;28.942;-13.688;2022-10-10T13:05:01;2;1;
70922;PMS5003;58573;28.942;-13.688;2022-10-10T13:07:26;2;2;
70922;PMS5003;58573;28.942;-13.688;2022-10-10T13:09:52;3;2;
70922;PMS5003;58573;28.942;-13.688;2022-10-10T13:12:20;1;1;
70922;PMS5003;58573;28.942;-13.688;2022-10-10T13:14:43;2;2;
70922;PMS5003;58573;28.942;-13.688;2022-10-10T13:19:39;2;2;
70922;PMS5003;58573;28.942;-13.688;2022-10-10T13:21:57;0;0;
70922;PMS5003;58573;28.942;-13.688;2022-10-10T13:24:25;3;2;
70922;PMS5003;58573;28.942;-13.688;2022-10-10T13:26:49;3;3;
70922;PMS5003;58573;28.942;-13.688;2022-10-10T13:29:17;3;3;
70922;PMS5003;58573;28.942;-13.688;2022-10-10T13:31:39;4;2;
70922;PMS5003;58573;28.942;-13.688;2022-10-10T13:34:04;2;1;
70922;PMS5003;58573;28.942;-13.688;2022-10-10T13:36:29;2;2;
70922;PMS5003;58573;28.942;-13.688;2022-10-10T13:38:54;3;2;
70922;PMS5003;58573;28.942;-13.688;2022-10-10T13:41:19;1;1;
70922;PMS5003;58573;28.942;-13.688;2022-10-10T13:43:45;2;2;
70922;PMS5003;58573;28.942;-13.688;2022-10-10T13:48:37;2;1;
70922;PMS5003;58573;28.942;-13.688;2022-10-10T13:51:03;1;1;
70922;PMS5003;58573;28.942;-13.688;2022-10-10T13:53:31;3;2;
70922;PMS5003;58573;28.942;-13.688;2022-10-10T13:55:56;1;1;
70922;PMS5003;58573;28.942;-13.688;2022-10-10T13:58:16;1;1;
70922;PMS5003;58573;28.942;-13.688;2022-10-10T14:00:41;3;2;
70922;PMS5003;58573;28.942;-13.688;2022-10-10T14:03:11;3;3;
70922;PMS5003;58573;28.942;-13.688;2022-10-10T14:05:32;3;1;
70922;PMS5003;58573;28.942;-13.688;2022-10-10T14:07:57;2;2;
70922;PMS5003;58573;28.942;-13.688;2022-10-10T14:10:23;3;2;
70922;PMS5003;58573;28.942;-13.688;2022-10-10T14:12:48;3;2;
70922;PMS5003;58573;28.942;-13.688;2022-10-10T14:17:38;3;3;
70922;PMS5003;58573;28.942;-13.688;2022-10-10T14:20:04;2;1;
70922;PMS5003;58573;28.942;-13.688;2022-10-10T14:22:29;3;2;
70922;PMS5003;58573;28.942;-13.688;2022-10-10T14:24:54;1;0;
70922;PMS5003;58573;28.942;-13.688;2022-10-10T14:27:21;3;2;
70922;PMS5003;58573;28.942;-13.688;2022-10-10T14:29:44;2;1;
70922;PMS5003;58573;28.942;-13.688;2022-10-10T14:32:10;2;2;
70922;PMS5003;58573;28.942;-13.688;2022-10-10T14:34:35;2;1;
70922;PMS5003;58573;28.942;-13.688;2022-10-10T14:37:00;6;3;
70922;PMS5003;58573;28.942;-13.688;2022-10-10T14:39:25;1;0;
70922;PMS5003;58573;28.942;-13.688;2022-10-10T14:41:50;3;2;
70922;PMS5003;58573;28.942;-13.688;2022-10-10T14:44:15;3;2;
70922;PMS5003;58573;28.942;-13.688;2022-10-10T14:46:40;2;2;
70922;PMS5003;58573;28.942;-13.688;2022-10-10T14:49:14;3;2;
70922;PMS5003;58573;28.942;-13.688;2022-10-10T14:51:31;3;3;
70922;PMS5003;58573;28.942;-13.688;2022-10-10T14:53:56;4;2;
70922;PMS5003;58573;28.942;-13.688;2022-10-10T14:56:21;4;3;
70922;PMS5003;58573;28.942;-13.688;2022-10-10T14:58:46;3;2;
70922;PMS5003;58573;28.942;-13.688;2022-10-10T15:01:12;4;3;
70922;PMS5003;58573;28.942;-13.688;2022-10-10T15:03:37;3;2;
70922;PMS5003;58573;28.942;-13.688;2022-10-10T15:06:02;5;2;
70922;PMS5003;58573;28.942;-13.688;2022-10-10T15:08:28;8;6;
70922;PMS5003;58573;28.942;-13.688;2022-10-10T15:10:53;2;2;
70922;PMS5003;58573;28.942;-13.688;2022-10-10T15:13:18;2;2;
70922;PMS5003;58573;28.942;-13.688;2022-10-10T15:15:44;3;2;
70922;PMS5003;58573;28.942;-13.688;2022-10-10T15:18:08;4;3;
70922;PMS5003;58573;28.942;-13.688;2022-10-10T15:20:33;3;3;
70922;PMS5003;58573;28.942;-13.688;2022-10-10T15:22:59;3;2;
70922;PMS5003;58573;28.942;-13.688;2022-10-10T15:25:24;3;3;
70922;PMS5003;58573;28.942;-13.688;2022-10-10T15:27:50;3;2;
70922;PMS5003;58573;28.942;-13.688;2022-10-10T15:30:15;2;2;
70922;PMS5003;58573;28.942;-13.688;2022-10-10T15:32:40;3;3;
70922;PMS5003;58573;28.942;-13.688;2022-10-10T15:35:05;3;2;
70922;PMS5003;58573;28.942;-13.688;2022-10-10T15:37:31;4;3;
70922;PMS5003;58573;28.942;-13.688;2022-10-10T15:39:56;3;2;
70922;PMS5003;58573;28.942;-13.688;2022-10-10T15:42:22;5;5;
70922;PMS5003;58573;28.942;-13.688;2022-10-10T15:44:47;4;4;
70922;PMS5003;58573;28.942;-13.688;2022-10-10T15:47:13;3;2;
70922;PMS5003;58573;28.942;-13.688;2022-10-10T15:49:38;3;2;
70922;PMS5003;58573;28.942;-13.688;2022-10-10T15:52:04;2;1;
70922;PMS5003;58573;28.942;-13.688;2022-10-10T15:54:29;3;2;
70922;PMS5003;58573;28.942;-13.688;2022-10-10T15:56:55;3;3;
70922;PMS5003;58573;28.942;-13.688;2022-10-10T15:59:19;3;2;
70922;PMS5003;58573;28.942;-13.688;2022-10-10T16:01:45;4;3;
70922;PMS5003;58573;28.942;-13.688;2022-10-10T16:04:10;4;2;
70922;PMS5003;58573;28.942;-13.688;2022-10-10T16:06:35;2;2;
70922;PMS5003;58573;28.942;-13.688;2022-10-10T16:09:01;2;2;
70922;PMS5003;58573;28.942;-13.688;2022-10-10T16:11:26;3;2;
70922;PMS5003;58573;28.942;-13.688;2022-10-10T16:13:52;4;4;
70922;PMS5003;58573;28.942;-13.688;2022-10-10T16:16:18;3;2;
70922;PMS5003;58573;28.942;-13.688;2022-10-10T16:18:42;5;2;
70922;PMS5003;58573;28.942;-13.688;2022-10-10T16:21:08;7;4;
70922;PMS5003;58573;28.942;-13.688;2022-10-10T16:23:33;4;4;
70922;PMS5003;58573;28.942;-13.688;2022-10-10T16:25:59;6;4;
70922;PMS5003;58573;28.942;-13.688;2022-10-10T16:28:23;3;2;